• Join FlightAware (Why Join?)
  • Login
  • US Flag 
01:25PM EDT


 

Airport Tracker/Info


-or-


 

Live Flight TrackerFlight Track Log ✈ GLR584 ✈ 27-Apr-2013 ✈ CYVR - CYBL

Flight Track Log - Related Links

Times and Time Zones

All times are in EDT time to prevent confusion due to time zone crossing. See the GLR584 flight status page for this flight to view local times or setup timezone preferences in your user account.

Time Position Orientation Groundspeed Altitude Reporting Facility
EDT Latitude Longitude Course Direction KTS MPH feet Rate Location/Type
11:11AM 49.1667 -123.1667 287° West 140 161 1,100  Level Vancouver Center
11:12AM 49.1333 -123.1167 136° Southeast 150 173 3,100 1,980 Climbing Vancouver Center
11:13AM 49.1000 -123.1167 180° South 130 150 5,100 1,980 Climbing Vancouver Center
11:14AM 49.0667 -123.1667 225° Southwest 140 161 7,100 1,980 Climbing Vancouver Center
11:15AM 49.0667 -123.2167 270° West 150 173 9,100 1,740 Climbing Vancouver Center
11:16AM 49.3106 -123.6830 293° West  Level FlightAware Approximate
11:16AM 49.0833 -123.2667 297° West 160 184 10,600  Level Vancouver Center
11:17AM 49.3334 -123.7668 287° West  Level FlightAware Approximate
11:17AM 49.1000 -123.3167 297° West 140 161 12,000  Level Vancouver Center
11:18AM 49.1333 -123.3833 307° West 190 219 12,000  Level Vancouver Center
11:19AM 49.1667 -123.4667 301° West 210 242 12,000  Level Vancouver Center
11:20AM 49.2000 -123.5500 301° West 210 242 12,100  Climbing Vancouver Center
11:21AM 49.2333 -123.6167 307° West 220 253 12,000  Descending Vancouver Center
11:22AM 49.2667 -123.7000 302° West 210 242 12,100  Climbing Vancouver Center
11:23AM 49.2833 -123.7667 291° West 210 242 12,100 -60 Level Vancouver Center
11:24AM 49.3333 -123.8500 313° West 220 253 12,000  Descending Vancouver Center
11:25AM 49.3500 -123.9333 287° West 210 242 12,100  Climbing Vancouver Center
11:26AM 49.3833 -124.0000 308° West 210 242 12,100  Level Vancouver Center
11:27AM 49.4167 -124.0833 302° West 210 242 12,100  Level Vancouver Center
11:28AM 49.4500 -124.1667 302° West 220 253 12,100 -300 Level Vancouver Center
11:29AM 49.4833 -124.2667 297° West 230 265 11,600 -660 Descending Vancouver Center
11:30AM 49.5167 -124.3333 308° West 240 276 10,800 -900 Descending Vancouver Center
11:31AM 49.5500 -124.4500 294° West 240 276 9,800 -1,140 Descending Vancouver Center
11:32AM 49.5833 -124.5167 308° West 240 276 8,600 -1,200 Descending Vancouver Center
11:33AM 49.6000 -124.6000 287° West 230 265 7,500 -1,200 Descending Vancouver Center
11:34AM 49.6333 -124.7000 297° West 230 265 6,200 -1,200 Descending Vancouver Center
11:35AM 49.6667 -124.7833 302° West 220 253 5,200 -600 Descending Vancouver Center
11:36AM 49.7000 -124.8500 308° West 220 253 5,000 -540 Descending Vancouver Center
11:37AM 49.7333 -124.9333 302° West 220 253 4,200 -960 Descending Vancouver Center
11:38AM 49.7667 -125.0167 302° West 210 242 3,100 -660 Descending Vancouver Center
11:39AM 49.8167 -125.0667 327° Northwest 210 242 2,900 -600 Descending Vancouver Center
11:40AM 49.8500 -125.1500 302° West 200 230 2,000 -660 Descending Vancouver Center
11:41AM 49.8833 -125.1667 342° North 160 184 1,600 -540 Descending Vancouver Center
11:42AM 49.9000 -125.2167 297° West 150 173 1,000 -600 Descending Vancouver Center